.
WxDataArchive / Data Records for 2007-09-16
2007-09-15 September 2007 2007-09-17

Data Records for Sunday, 16 September 2007

Time	Temp	Chill	HIndex	Humid	Dewpt	 Wind 	HiWind	WindDir	Rain 	Barom 
-----	----	-----	------	-----	-----	------	------	-------	-----	----- 
00:00	41.1	41.1	41.1	94	39.5	0	0	---	0.00	30.234 
00:05	41.1	41.1	41.1	94	39.5	0	0	---	0.00	30.233 
00:10	40.9	40.9	40.9	94	39.3	0	0	---	0.00	30.233 
00:15	40.9	40.9	40.9	94	39.3	0	0	---	0.00	30.234 
00:20	40.9	40.9	40.9	95	39.6	0	0	---	0.00	30.234 
00:25	40.9	40.9	40.9	95	39.6	0	0	---	0.00	30.233 
00:30	40.8	40.8	40.8	95	39.5	0	0	---	0.00	30.233 
00:35	40.6	40.6	40.6	95	39.3	0	0	---	0.00	30.232 
00:40	40.6	40.6	40.6	95	39.3	0	0	---	0.00	30.233 
00:45	40.5	40.5	40.5	95	39.2	0	0	---	0.00	30.233 
00:50	40.3	40.3	40.3	95	39.0	0	0	---	0.00	30.230 
00:55	40.2	40.2	40.2	95	38.9	0	0	---	0.00	30.227 
01:00	40.2	40.2	40.2	95	38.9	0	0	---	0.00	30.231 
01:05	40.2	40.2	40.2	95	38.9	0	0	---	0.00	30.228 
01:10	40.2	40.2	40.2	95	38.9	0	0	---	0.00	30.225 
01:15	40.2	40.2	40.2	95	38.9	0	0	---	0.00	30.225 
01:20	40.3	40.3	40.3	95	39.0	0	0	---	0.00	30.229 
01:25	40.3	40.3	40.3	95	39.0	0	0	---	0.00	30.226 
01:30	40.2	40.2	40.2	95	38.9	0	0	---	0.00	30.227 
01:35	40.2	40.2	40.2	95	38.9	0	0	---	0.00	30.227 
01:40	40.2	40.2	40.2	96	39.2	0	0	---	0.00	30.227 
01:45	40.2	40.2	40.2	96	39.2	0	0	---	0.00	30.228 
01:50	40.2	40.2	40.2	96	39.2	0	0	---	0.00	30.229 
01:55	40.1	40.1	40.1	96	39.1	0	0	---	0.00	30.224 
02:00	40.1	40.1	40.1	96	39.1	0	0	---	0.00	30.223 
02:05	39.9	39.9	39.9	96	38.9	0	0	---	0.00	30.225 
02:10	39.9	39.9	39.9	96	38.9	0	0	---	0.00	30.225 
02:15	39.8	39.8	39.8	96	38.8	0	0	---	0.00	30.223 
02:20	39.8	39.8	39.8	96	38.8	0	0	---	0.00	30.228 
02:25	39.8	39.8	39.8	96	38.8	0	0	---	0.00	30.227 
02:30	39.6	39.6	39.6	96	38.6	0	0	---	0.00	30.226 
02:35	39.6	39.6	39.6	96	38.6	0	0	---	0.00	30.226 
02:40	39.6	39.6	39.6	96	38.6	0	0	---	0.00	30.229 
02:45	39.6	39.6	39.6	96	38.6	0	0	---	0.00	30.229 
02:50	39.5	39.5	39.5	96	38.5	0	0	---	0.00	30.229 
02:55	39.5	39.5	39.5	96	38.5	0	0	---	0.00	30.225 
03:00	39.5	39.5	39.5	96	38.5	0	0	---	0.00	30.226 
03:05	39.5	39.5	39.5	96	38.5	0	0	---	0.00	30.224 
03:10	39.3	39.3	39.3	96	38.3	0	0	---	0.00	30.223 
03:15	39.3	39.3	39.3	96	38.3	0	0	---	0.00	30.222 
03:20	39.2	39.2	39.2	96	38.2	0	0	---	0.00	30.223 
03:25	39.2	39.2	39.2	96	38.2	0	0	---	0.00	30.222 
03:30	39.1	39.1	39.1	96	38.1	0	0	---	0.00	30.222 
03:35	39.1	39.1	39.1	96	38.1	0	0	---	0.00	30.221 
03:40	38.9	38.9	38.9	96	37.9	0	0	---	0.00	30.221 
03:45	38.9	38.9	38.9	96	37.9	0	0	---	0.00	30.222 
03:50	38.8	38.8	38.8	96	37.8	0	0	---	0.00	30.222 
03:55	38.6	38.6	38.6	96	37.6	0	0	---	0.00	30.223 
04:00	38.6	38.6	38.6	96	37.6	0	0	---	0.00	30.227 
04:05	38.6	38.6	38.6	96	37.6	0	0	---	0.00	30.228 
04:10	38.6	38.6	38.6	96	37.6	0	0	---	0.00	30.232 
04:15	38.8	38.8	38.8	96	37.8	0	0	---	0.00	30.232 
04:20	38.8	38.8	38.8	96	37.8	0	0	---	0.00	30.231 
04:25	38.6	38.6	38.6	96	37.6	0	0	---	0.00	30.230 
04:30	38.5	38.5	38.5	96	37.5	0	0	---	0.00	30.230 
04:35	38.5	38.5	38.5	96	37.5	0	0	---	0.00	30.231 
04:40	38.3	38.3	38.3	96	37.3	0	0	---	0.00	30.233 
04:45	38.3	38.3	38.3	96	37.3	0	0	---	0.00	30.232 
04:50	38.2	38.2	38.2	96	37.2	0	0	---	0.00	30.230 
04:55	38.2	38.2	38.2	96	37.2	0	0	---	0.00	30.232 
05:00	38.2	38.2	38.2	96	37.2	0	0	---	0.00	30.234 
05:05	38.2	38.2	38.2	96	37.2	0	0	---	0.00	30.235 
05:10	38.2	38.2	38.2	96	37.2	0	0	---	0.00	30.236 
05:15	38.2	38.2	38.2	96	37.2	0	0	---	0.00	30.237 
05:20	38.2	38.2	38.2	96	37.2	0	0	---	0.00	30.237 
05:25	38.2	38.2	38.2	96	37.2	0	0	---	0.00	30.236 
05:30	38.2	38.2	38.2	96	37.2	0	0	---	0.00	30.237 
05:35	38.2	38.2	38.2	96	37.2	0	0	---	0.00	30.236 
05:40	38.0	38.0	38.0	96	37.0	0	0	---	0.00	30.235 
05:45	38.0	38.0	38.0	96	37.0	0	0	---	0.00	30.236 
05:50	38.0	38.0	38.0	96	37.0	0	0	---	0.00	30.238 
05:55	38.0	38.0	38.0	96	37.0	0	0	---	0.00	30.238 
06:00	38.0	38.0	38.0	96	37.0	0	0	---	0.00	30.239 
06:05	37.9	37.9	37.9	96	36.9	0	0	---	0.00	30.245 
06:10	37.9	37.9	37.9	96	36.9	0	0	---	0.00	30.247 
06:15	37.8	37.8	37.8	96	36.8	0	0	---	0.00	30.249 
06:20	37.8	37.8	37.8	96	36.8	0	0	---	0.00	30.249 
06:25	37.8	37.8	37.8	96	36.8	0	0	---	0.00	30.251 
06:30	37.8	37.8	37.8	96	36.8	0	0	---	0.00	30.252 
06:35	37.6	37.6	37.6	96	36.6	0	0	---	0.00	30.253 
06:40	37.8	37.8	37.8	96	36.8	0	0	---	0.00	30.255 
06:45	37.8	37.8	37.8	96	36.8	0	0	---	0.00	30.256 
06:50	37.9	37.9	37.9	97	37.1	0	0	---	0.00	30.257 
06:55	38.2	38.2	38.2	97	37.4	0	0	---	0.00	30.258 
07:00	38.3	38.3	38.3	97	37.5	0	0	---	0.00	30.257 
07:05	38.6	38.6	38.6	97	37.8	0	0	---	0.00	30.262 
07:10	39.1	39.1	39.1	97	38.3	0	0	---	0.00	30.262 
07:15	39.6	39.6	39.6	97	38.8	0	0	---	0.00	30.260 
07:20	40.2	40.2	40.2	97	39.4	0	0	---	0.00	30.260 
07:25	40.9	40.9	40.9	97	40.1	0	0	---	0.00	30.259 
07:30	41.8	41.8	41.8	97	41.0	0	0	---	0.00	30.257 
07:35	42.5	42.5	42.5	97	41.7	0	0	---	0.00	30.258 
07:40	43.3	43.3	43.3	98	42.8	0	0	---	0.00	30.260 
07:45	44.2	44.2	44.2	98	43.7	0	0	---	0.00	30.259 
07:50	44.8	44.8	44.8	98	44.3	0	0	---	0.00	30.259 
07:55	45.1	45.1	45.1	98	44.6	0	1	292	0.00	30.261 
08:00	45.2	45.2	45.2	98	44.7	0	1	292	0.00	30.265 
08:05	45.4	45.4	45.4	97	44.6	0	1	292	0.00	30.267 
08:10	45.7	45.7	45.7	97	44.9	0	1	292	0.00	30.268 
08:15	46.0	46.0	46.0	94	44.4	0	3	292	0.00	30.269 
08:20	46.5	46.5	46.5	91	44.0	0	1	292	0.00	30.271 
08:25	47.1	47.1	47.1	87	43.4	0	1	292	0.00	30.270 
08:30	47.9	47.9	47.9	85	43.6	0	1	292	0.00	30.270 
08:35	48.6	48.6	48.6	84	44.0	0	1	292	0.00	30.268 
08:40	49.4	49.4	49.4	79	43.2	0	3	292	0.00	30.268 
08:45	50.1	50.1	50.1	78	43.5	0	2	45	0.00	30.270 
08:50	51.0	51.0	51.0	76	43.7	0	1	45	0.00	30.268 
08:55	52.2	52.2	52.2	74	44.2	1	3	68	0.00	30.269 
09:00	53.2	53.2	53.2	73	44.8	1	3	68	0.00	30.268 
09:05	53.9	53.9	53.9	68	43.6	1	3	112	0.00	30.270 
09:10	54.7	54.7	54.7	69	44.7	1	3	90	0.00	30.271 
09:15	55.1	55.1	55.1	66	43.9	1	3	90	0.00	30.270 
09:20	55.9	55.9	55.9	66	44.7	0	2	90	0.00	30.269 
09:25	56.6	56.6	56.6	64	44.6	1	3	112	0.00	30.271 
09:30	56.9	56.9	56.9	62	44.0	1	3	112	0.00	30.273 
09:35	57.2	57.2	57.2	62	44.3	1	4	90	0.00	30.271 
09:40	57.6	57.6	57.6	61	44.2	1	4	112	0.00	30.272 
09:45	58.3	58.3	58.3	61	44.9	0	2	112	0.00	30.269 
09:50	58.7	58.7	58.7	58	44.0	0	2	112	0.00	30.271 
09:55	58.9	58.9	58.9	58	44.1	0	2	112	0.00	30.273 
10:00	59.2	59.2	59.2	57	44.0	1	3	248	0.00	30.272 
10:05	59.5	59.5	59.5	57	44.3	0	3	248	0.00	30.272 
10:10	60.2	60.2	60.2	51	42.0	1	3	248	0.00	30.267 
10:15	60.5	60.5	60.5	54	43.8	1	4	90	0.00	30.266 
10:20	60.7	60.7	60.7	51	42.5	2	3	112	0.00	30.265 
10:25	60.9	60.9	60.9	53	43.7	1	3	112	0.00	30.267 
10:30	61.3	61.3	61.3	51	43.0	1	4	112	0.00	30.265 
10:35	61.6	61.6	61.6	45	40.0	1	4	112	0.00	30.266 
10:40	62.0	62.0	62.0	50	43.1	1	3	112	0.00	30.265 
10:45	62.3	62.3	62.3	45	40.7	0	2	112	0.00	30.263 
10:50	62.6	62.6	62.6	45	41.0	1	3	90	0.00	30.264 
10:55	62.7	62.7	62.7	43	39.9	1	4	90	0.00	30.264 
11:00	63.4	63.4	63.4	48	43.4	1	3	112	0.00	30.264 
11:05	63.5	63.5	63.5	46	42.3	1	6	112	0.00	30.263 
11:10	63.7	63.7	63.7	41	39.6	1	5	68	0.00	30.264 
11:15	63.7	63.7	63.7	44	41.4	1	4	90	0.00	30.263 
11:20	63.4	63.4	63.4	43	40.5	2	5	90	0.00	30.263 
11:25	62.9	62.9	62.9	43	40.1	2	4	90	0.00	30.263 
11:30	63.2	63.2	63.2	40	38.5	0	2	90	0.00	30.262 
11:35	63.4	63.4	63.4	37	36.7	1	3	90	0.00	30.262 
11:40	64.0	64.0	64.0	41	39.8	0	2	135	0.00	30.261 
11:45	63.9	63.9	63.9	39	38.5	1	3	112	0.00	30.259 
11:50	63.7	63.7	63.7	44	41.4	0	2	180	0.00	30.258 
11:55	63.9	63.9	63.9	43	41.0	0	1	180	0.00	30.258 
12:00	64.7	64.7	64.7	42	41.1	1	3	180	0.00	30.254 
12:05	64.7	64.7	64.7	36	37.1	1	3	248	0.00	30.253 
12:10	64.5	64.5	64.5	40	39.6	0	2	270	0.00	30.251 
12:15	65.2	65.2	65.2	38	38.9	1	3	90	0.00	30.249 
12:20	64.5	64.5	64.5	36	36.9	2	4	90	0.00	30.249 
12:25	64.5	64.5	64.5	38	38.3	1	3	90	0.00	30.249 
12:30	64.7	64.7	64.7	40	39.8	0	1	90	0.00	30.249 
12:35	64.8	64.8	64.8	41	40.5	2	5	90	0.00	30.248 
12:40	64.8	64.8	64.8	39	39.3	1	3	90	0.00	30.247 
12:45	64.7	64.7	64.7	40	39.8	1	4	90	0.00	30.247 
12:50	63.9	63.9	63.9	39	38.5	2	5	112	0.00	30.245 
12:55	63.5	63.5	63.5	40	38.7	1	3	112	0.00	30.246 
13:00	63.9	63.9	63.9	40	39.1	0	2	112	0.00	30.238 
13:05	64.5	64.5	64.5	38	38.3	1	3	112	0.00	30.239 
13:10	64.5	64.5	64.5	36	36.9	1	5	112	0.00	30.237 
13:15	64.7	64.7	64.7	38	38.5	0	3	112	0.00	30.232 
13:20	64.8	64.8	64.8	38	38.6	1	5	90	0.00	30.232 
13:25	64.8	64.8	64.8	34	35.8	1	3	112	0.00	30.233 
13:30	64.7	64.7	64.7	34	35.7	1	3	112	0.00	30.230 
13:35	64.8	64.8	64.8	35	36.5	1	3	112	0.00	30.229 
13:40	65.2	65.2	65.2	35	36.9	1	4	112	0.00	30.227 
13:45	65.6	65.6	65.6	38	39.3	1	3	90	0.00	30.223 
13:50	65.8	65.8	65.8	34	36.6	1	4	90	0.00	30.226 
13:55	65.3	65.3	65.3	33	35.5	2	5	90	0.00	30.224 
14:00	65.0	65.0	65.0	34	35.9	1	3	90	0.00	30.222 
14:05	65.3	65.3	65.3	38	39.0	1	4	90	0.00	30.219 
14:10	65.6	65.6	65.6	35	37.2	1	4	112	0.00	30.213 
14:15	65.8	65.8	65.8	34	36.6	1	4	292	0.00	30.211 
14:20	65.8	65.8	65.8	35	37.4	1	3	90	0.00	30.211 
14:25	66.3	66.3	66.3	38	39.9	0	2	90	0.00	30.207 
14:30	66.8	66.8	66.8	32	36.0	1	3	248	0.00	30.203 
14:35	66.9	66.9	66.9	35	38.4	1	3	248	0.00	30.201 
14:40	66.1	66.1	66.1	33	36.2	2	7	90	0.00	30.198 
14:45	65.8	65.8	65.8	31	34.3	1	4	90	0.00	30.197 
14:50	65.8	65.8	65.8	32	35.1	2	5	68	0.00	30.197 
14:55	65.8	65.8	65.8	33	35.9	1	5	90	0.00	30.196 
15:00	66.0	66.0	66.0	29	32.8	1	3	90	0.00	30.195 
15:05	65.8	65.8	65.8	35	37.4	2	5	90	0.00	30.195 
15:10	65.8	65.8	65.8	34	36.6	2	7	90	0.00	30.189 
15:15	65.8	65.8	65.8	33	35.9	1	3	90	0.00	30.187 
15:20	66.0	66.0	66.0	34	36.8	1	4	90	0.00	30.186 
15:25	66.1	66.1	66.1	34	36.9	1	3	248	0.00	30.187 
15:30	66.4	66.4	66.4	31	34.8	1	3	90	0.00	30.182 
15:35	66.1	66.1	66.1	31	34.6	1	3	90	0.00	30.180 
15:40	66.0	66.0	66.0	30	33.7	1	3	68	0.00	30.180 
15:45	66.1	66.1	66.1	33	36.2	0	2	135	0.00	30.182 
15:50	66.1	66.1	66.1	31	34.6	2	5	90	0.00	30.182 
15:55	66.1	66.1	66.1	33	36.2	0	2	90	0.00	30.182 
16:00	66.1	66.1	66.1	33	36.2	1	2	90	0.00	30.181 
16:05	66.0	66.0	66.0	32	35.3	1	4	90	0.00	30.179 
16:10	66.0	66.0	66.0	31	34.5	0	1	112	0.00	30.176 
16:15	66.1	66.1	66.1	32	35.4	1	4	112	0.00	30.175 
16:20	66.0	66.0	66.0	32	35.3	2	5	90	0.00	30.177 
16:25	65.6	65.6	65.6	29	32.5	1	4	90	0.00	30.179 
16:30	65.5	65.5	65.5	31	34.1	1	5	90	0.00	30.177 
16:35	65.3	65.3	65.3	31	33.9	1	2	90	0.00	30.179 
16:40	65.3	65.3	65.3	30	33.1	1	4	90	0.00	30.179 
16:45	65.5	65.5	65.5	30	33.2	1	2	90	0.00	30.178 
16:50	65.6	65.6	65.6	30	33.3	1	3	90	0.00	30.175 
16:55	65.6	65.6	65.6	29	32.5	0	2	112	0.00	30.178 
17:00	65.6	65.6	65.6	29	32.5	1	2	112	0.00	30.179 
17:05	65.5	65.5	65.5	29	32.4	1	4	112	0.00	30.180 
17:10	65.2	65.2	65.2	29	32.1	1	3	90	0.00	30.183 
17:15	65.2	65.2	65.2	30	33.0	0	2	90	0.00	30.182 
17:20	65.2	65.2	65.2	30	33.0	1	2	90	0.00	30.183 
17:25	65.0	65.0	65.0	29	32.0	1	2	90	0.00	30.183 
17:30	64.8	64.8	64.8	30	32.6	1	2	90	0.00	30.183 
17:35	64.8	64.8	64.8	31	33.5	0	2	112	0.00	30.182 
17:40	64.7	64.7	64.7	33	34.9	0	1	112	0.00	30.180 
17:45	64.5	64.5	64.5	35	36.2	0	1	112	0.00	30.181 
17:50	64.3	64.3	64.3	35	36.1	0	2	112	0.00	30.181 
17:55	64.2	64.2	64.2	35	36.0	0	1	112	0.00	30.180 
18:00	63.9	63.9	63.9	37	37.1	0	1	112	0.00	30.179 
18:05	63.5	63.5	63.5	37	36.8	0	1	112	0.00	30.179 
18:10	63.4	63.4	63.4	36	36.0	0	2	112	0.00	30.183 
18:15	63.2	63.2	63.2	37	36.5	0	0	---	0.00	30.184 
18:20	63.1	63.1	63.1	39	37.7	0	1	112	0.00	30.184 
18:25	62.7	62.7	62.7	40	38.0	0	0	---	0.00	30.183 
18:30	62.4	62.4	62.4	42	39.0	0	0	---	0.00	30.183 
18:35	62.0	62.0	62.0	44	39.8	0	0	---	0.00	30.178 
18:40	61.3	61.3	61.3	46	40.3	0	0	---	0.00	30.179 
18:45	60.5	60.5	60.5	45	39.1	0	0	---	0.00	30.180 
18:50	59.9	59.9	59.9	48	40.2	0	0	---	0.00	30.183 
18:55	59.5	59.5	59.5	47	39.3	0	0	---	0.00	30.183 
19:00	59.0	59.0	59.0	51	40.9	0	0	---	0.00	30.187 
19:05	58.6	58.6	58.6	53	41.5	0	0	---	0.00	30.180 
19:10	57.8	57.8	57.8	54	41.3	0	0	---	0.00	30.183 
19:15	57.2	57.2	57.2	55	41.2	0	0	---	0.00	30.183 
19:20	56.9	56.9	56.9	57	41.8	0	0	---	0.00	30.183 
19:25	56.3	56.3	56.3	57	41.3	0	0	---	0.00	30.184 
19:30	55.9	55.9	55.9	59	41.8	0	0	---	0.00	30.187 
19:35	55.3	55.3	55.3	60	41.7	0	0	---	0.00	30.189 
19:40	54.8	54.8	54.8	61	41.6	0	0	---	0.00	30.192 
19:45	54.4	54.4	54.4	62	41.7	0	0	---	0.00	30.195 
19:50	53.9	53.9	53.9	62	41.2	0	0	---	0.00	30.195 
19:55	53.5	53.5	53.5	63	41.2	0	0	---	0.00	30.196 
20:00	53.2	53.2	53.2	62	40.5	0	0	---	0.00	30.198 
20:05	52.8	52.8	52.8	65	41.4	0	0	---	0.00	30.192 
20:10	52.5	52.5	52.5	67	41.9	0	0	---	0.00	30.194 
20:15	52.3	52.3	52.3	68	42.1	0	0	---	0.00	30.196 
20:20	52.0	52.0	52.0	70	42.5	0	0	---	0.00	30.197 
20:25	51.7	51.7	51.7	71	42.6	0	0	---	0.00	30.197 
20:30	51.6	51.6	51.6	73	43.2	0	0	---	0.00	30.198 
20:35	51.3	51.3	51.3	74	43.3	0	0	---	0.00	30.198 
20:40	51.1	51.1	51.1	74	43.1	0	0	---	0.00	30.198 
20:45	50.8	50.8	50.8	74	42.8	0	0	---	0.00	30.198 
20:50	50.5	50.5	50.5	74	42.5	0	0	---	0.00	30.198 
20:55	50.4	50.4	50.4	73	42.1	0	0	---	0.00	30.200 
21:00	50.1	50.1	50.1	74	42.1	0	0	---	0.00	30.200 
21:05	49.9	49.9	49.9	74	41.9	0	0	---	0.00	30.197 
21:10	49.8	49.8	49.8	74	41.9	0	0	---	0.00	30.197 
21:15	49.6	49.6	49.6	74	41.7	0	0	---	0.00	30.197 
21:20	49.5	49.5	49.5	75	41.9	0	0	---	0.00	30.197 
21:25	49.2	49.2	49.2	75	41.6	0	0	---	0.00	30.200 
21:30	49.1	49.1	49.1	76	41.9	0	0	---	0.00	30.200 
21:35	48.9	48.9	48.9	77	42.0	0	0	---	0.00	30.201 
21:40	48.8	48.8	48.8	76	41.6	0	0	---	0.00	30.201 
21:45	48.6	48.6	48.6	77	41.7	0	0	---	0.00	30.201 
21:50	48.5	48.5	48.5	77	41.6	0	0	---	0.00	30.204 
21:55	48.3	48.3	48.3	78	41.8	0	0	---	0.00	30.205 
22:00	48.0	48.0	48.0	78	41.5	0	0	---	0.00	30.205 
22:05	48.0	48.0	48.0	80	42.1	0	0	---	0.00	30.203 
22:10	47.9	47.9	47.9	81	42.4	0	0	---	0.00	30.202 
22:15	47.7	47.7	47.7	81	42.2	0	0	---	0.00	30.202 
22:20	47.6	47.6	47.6	81	42.1	0	0	---	0.00	30.202 
22:25	47.4	47.4	47.4	81	41.9	0	0	---	0.00	30.204 
22:30	47.3	47.3	47.3	82	42.1	0	0	---	0.00	30.205 
22:35	47.3	47.3	47.3	82	42.1	0	0	---	0.00	30.203 
22:40	47.1	47.1	47.1	82	41.9	0	0	---	0.00	30.202 
22:45	47.3	47.3	47.3	83	42.4	0	0	---	0.00	30.197 
22:50	47.1	47.1	47.1	83	42.2	0	0	---	0.00	30.196 
22:55	47.1	47.1	47.1	83	42.2	0	0	---	0.00	30.197 
23:00	47.1	47.1	47.1	82	41.9	0	0	---	0.00	30.196 
23:05	47.1	47.1	47.1	83	42.2	0	0	---	0.00	30.192 
23:10	47.1	47.1	47.1	82	41.9	0	0	---	0.00	30.191 
23:15	47.0	47.0	47.0	81	41.5	0	0	---	0.00	30.191 
23:20	47.0	47.0	47.0	81	41.5	0	0	---	0.00	30.188 
23:25	47.0	47.0	47.0	81	41.5	0	0	---	0.00	30.187 
23:30	47.0	47.0	47.0	81	41.5	0	0	---	0.00	30.183 
23:35	47.0	47.0	47.0	81	41.5	0	0	---	0.00	30.184 
23:40	46.8	46.8	46.8	81	41.3	0	0	---	0.00	30.182 
23:45	46.8	46.8	46.8	81	41.3	0	0	---	0.00	30.185 
23:50	46.8	46.8	46.8	81	41.3	0	0	---	0.00	30.185 
23:55	46.7	46.7	46.7	81	41.2	0	0	---	0.00	30.183 

CoCoRaHS
IN-AL-39
A2 Web Hosting
Creative Commons License
GoDaddy
Look for:

loaded 2017-10-19 19:59:07 • last modified 2010-11-18 10:43:29
Privacy PolicyDisclaimer
• wx.awcolley.com is powered by PmWiki v.2002016 •
• all content (unless otherwise noted) © 2017 A W Colley